Fernando Namora — CSKF — position and weather

sailwx.info

Track history (hours):
 
Tides and Currents Weather Stations Pressure Air Temp Water Temp Dewpoint Dewpoint Depression Visibility Wind Speed Wind Dir Waves Ship Positions

Fernando Namora

Last reported at 2017-Sep-21 23:00 UTC. Time now 2017-Sep-21 23:21 UTC.
Position N 38°39' W 009°05'.

Length 49 m; draft 1.5 m.

Type: Ship. MMSI: 263701380.

Date/timePositionNaut miles runAvg speedWind from/ knotsBaromVisibWave heightAir tempDewpointWater temp
2017-Sep-21 23:00N 38°39' W 009°05'4 8.4
2017-Sep-21 22:30N 38°42' W 009°08'4 8.3
2017-Sep-21 22:00N 38°39' W 009°05'4 7.1
2017-Sep-21 21:31N 38°42' W 009°08'4 7.1
2017-Sep-21 21:00N 38°39' W 009°05'3 6.7
2017-Sep-21 20:30N 38°41' W 009°08'3 6.6
2017-Sep-21 20:00N 38°39' W 009°05'0 0.0
2017-Sep-21 19:31N 38°39' W 009°05'4 8.2
2017-Sep-21 19:01N 38°42' W 009°08'4 8.3
2017-Sep-21 18:30N 38°39' W 009°05'4 8.4
2017-Sep-21 18:00N 38°42' W 009°08'4 8.3
2017-Sep-21 17:30N 38°39' W 009°05'4 7.8
2017-Sep-21 17:00N 38°42' W 009°08'2 4.6
2017-Sep-21 16:31N 38°40' W 009°07'1 1.0
2017-Sep-21 16:01N 38°40' W 009°08'2 4.6
2017-Sep-21 15:30N 38°39' W 009°05'0 0.0
2017-Sep-21 15:01N 38°39' W 009°05'0 0.0
2017-Sep-21 14:31N 38°39' W 009°05'0 0.0
2017-Sep-21 14:01N 38°39' W 009°05'0 0.0
2017-Sep-21 13:30N 38°39' W 009°05'0 0.0
2017-Sep-21 13:00N 38°39' W 009°05'0 0.0
2017-Sep-21 12:30N 38°39' W 009°05'3 6.5
2017-Sep-21 12:01N 38°41' W 009°08'2 5.0
2017-Sep-21 11:31N 38°39' W 009°06'3 5.4
2017-Sep-21 11:00N 38°42' W 009°08'3 6.3
2017-Sep-21 10:31N 38°39' W 009°05'0 0.9
2017-Sep-21 10:00N 38°39' W 009°05'0 0.0
2017-Sep-21 09:30N 38°39' W 009°05'4 8.3
2017-Sep-21 09:01N 38°42' W 009°08'4 8.3
2017-Sep-21 08:30N 38°39' W 009°05'4 8.4
2017-Sep-21 08:00N 38°42' W 009°08'4 7.9
2017-Sep-21 07:30N 38°39' W 009°05'2 4.4
2017-Sep-21 07:01N 38°40' W 009°07'1 1.9
2017-Sep-21 06:30N 38°40' W 009°06'1 1.0
2017-Sep-21 06:00N 38°40' W 009°06'1 2.0
2017-Sep-21 05:30N 38°39' W 009°05'0 0.0
2017-Sep-20 20:45N 38°39' W 009°05'0 0.0
2017-Sep-20 20:31N 38°39' W 009°05'4 8.3
2017-Sep-20 20:01N 38°42' W 009°08'4 8.2
2017-Sep-20 19:30N 38°39' W 009°05'2 3.5
2017-Sep-20 19:00N 38°40' W 009°07'1 1.8
2017-Sep-20 18:30N 38°40' W 009°08'1 1.5
2017-Sep-20 18:01N 38°40' W 009°07'1 1.5
2017-Sep-20 17:30N 38°40' W 009°06'3 6.3
2017-Sep-20 17:00N 38°42' W 009°08'4 8.4
2017-Sep-20 16:30N 38°39' W 009°05'0 0.2
2017-Sep-20 16:00N 38°39' W 009°05'1 1.4
2017-Sep-20 15:31N 38°39' W 009°06'2 4.2
2017-Sep-20 15:00N 38°41' W 009°08'3 2.8
2017-Sep-20 14:00N 38°39' W 009°05'0 0.0
2017-Sep-20 13:30N 38°39' W 009°05'0 0.0
2017-Sep-20 13:00N 38°39' W 009°05'0 0.0
2017-Sep-20 12:30N 38°39' W 009°05'0 0.0
2017-Sep-20 12:00N 38°39' W 009°05'0 0.0
2017-Sep-20 11:30N 38°39' W 009°05'0 0.0
2017-Sep-20 11:00N 38°39' W 009°05'0 0.0
2017-Sep-20 10:30N 38°39' W 009°05'0 0.0
2017-Sep-20 10:00N 38°39' W 009°05'0 0.2
2017-Sep-20 09:30N 38°39' W 009°05'3 7.0
2017-Sep-20 09:00N 38°42' W 009°08'3 5.9
2017-Sep-20 08:31N 38°39' W 009°06'3 5.3
2017-Sep-20 08:00N 38°41' W 009°08'3 5.3
2017-Sep-20 07:30N 38°39' W 009°06'4 7.3
2017-Sep-20 07:00N 38°42' W 009°08'4 8.3
2017-Sep-20 06:31N 38°39' W 009°05'3 6.0
2017-Sep-20 06:01N 38°41' W 009°08'3 6.0
2017-Sep-20 05:30N 38°39' W 009°05'0 0.0
2017-Sep-20 05:01N 38°39' W 009°05'0 0.0
2017-Sep-19 21:03N 38°39' W 009°05'0 0.0
2017-Sep-19 21:00N 38°39' W 009°05'0 0.0
2017-Sep-19 20:30N 38°39' W 009°05'4 8.2
2017-Sep-19 20:00N 38°42' W 009°08'4 8.4
2017-Sep-19 19:31N 38°39' W 009°05'2 3.7
2017-Sep-19 19:00N 38°40' W 009°07'1 2.3
2017-Sep-19 18:30N 38°41' W 009°08'1 2.1
2017-Sep-19 18:00N 38°40' W 009°07'1 1.7
2017-Sep-19 17:31N 38°40' W 009°06'3 6.2
2017-Sep-19 17:00N 38°42' W 009°08'4 8.4
2017-Sep-19 16:30N 38°39' W 009°05'4 8.4
2017-Sep-19 16:00N 38°42' W 009°08'4 7.3
2017-Sep-19 15:31N 38°39' W 009°06'3 5.4
2017-Sep-19 15:00N 38°41' W 009°08'3 6.3
2017-Sep-19 14:30N 38°39' W 009°05'0 0.0
2017-Sep-19 12:04N 38°39' W 009°05'0 0.0
2017-Sep-19 11:59N 38°39' W 009°05'0 0.0
2017-Sep-19 11:31N 38°39' W 009°05'0 0.0
2017-Sep-19 11:00N 38°39' W 009°05'0 0.0
2017-Sep-19 10:31N 38°39' W 009°05'4 7.1
2017-Sep-19 10:01N 38°42' W 009°08'3 6.4
2017-Sep-19 09:30N 38°39' W 009°05'1 1.0
2017-Sep-19 09:01N 38°39' W 009°05'2 4.8
2017-Sep-19 08:31N 38°40' W 009°07'2 3.2
2017-Sep-19 08:01N 38°39' W 009°06'3 6.8
2017-Sep-19 07:30N 38°42' W 009°08'4 8.3
2017-Sep-19 07:00N 38°39' W 009°05'4 7.7
2017-Sep-19 06:31N 38°42' W 009°08'4 7.5
2017-Sep-19 06:01N 38°39' W 009°05'0 0.0
2017-Sep-18 20:03N 38°39' W 009°05'0 0.0
2017-Sep-18 20:00N 38°39' W 009°05'4 8.2
2017-Sep-18 19:30N 38°42' W 009°08'4 8.3
2017-Sep-18 19:00N 38°39' W 009°05'4 8.3
2017-Sep-18 18:31N 38°42' W 009°08'4 7.0
2017-Sep-18 18:00N 38°39' W 009°06'2 3.7
2017-Sep-18 17:30N 38°41' W 009°07'1 1.5
2017-Sep-18 17:01N 38°41' W 009°08'3 6.4
2017-Sep-18 16:30N 38°39' W 009°05'0 0.0
2017-Sep-18 16:00N 38°39' W 009°05'4 8.2
2017-Sep-18 15:30N 38°42' W 009°08'4 8.3
2017-Sep-18 15:00N 38°39' W 009°05'3 6.9
2017-Sep-18 14:30N 38°42' W 009°08'3 5.8
2017-Sep-18 14:01N 38°39' W 009°06'3 5.8
2017-Sep-18 13:30N 38°42' W 009°08'3 6.0
2017-Sep-18 13:00N 38°39' W 009°06'3 6.3
2017-Sep-18 12:30N 38°42' W 009°08'3 6.4
2017-Sep-18 12:00N 38°39' W 009°05'3 6.2
2017-Sep-18 11:30N 38°42' W 009°08'3 6.0
2017-Sep-18 11:01N 38°39' W 009°06'3 5.5
2017-Sep-18 10:31N 38°41' W 009°08'3 6.0
2017-Sep-18 10:00N 38°39' W 009°05'0 0.9
2017-Sep-18 09:30N 38°39' W 009°05'0 0.1
2017-Sep-18 09:01N 38°39' W 009°05'4 8.5
2017-Sep-18 08:31N 38°42' W 009°08'4 8.3
2017-Sep-18 08:00N 38°39' W 009°05'4 7.8
2017-Sep-18 07:30N 38°42' W 009°08'2 4.9
2017-Sep-18 07:00N 38°40' W 009°07'1 1.9
2017-Sep-18 06:31N 38°39' W 009°06'1 1.5
2017-Sep-18 06:00N 38°39' W 009°05'0 0.0
2017-Sep-18 05:31N 38°39' W 009°05'0 0.0
2017-Sep-18 05:01N 38°39' W 009°05'0 0.0
2017-Sep-18 04:30N 38°39' W 009°05'0 0.0
2017-Sep-18 04:00N 38°39' W 009°05'0 0.0
2017-Sep-18 03:31N 38°39' W 009°05'0 0.0
2017-Sep-18 03:01N 38°39' W 009°05'0 0.0
2017-Sep-18 02:30N 38°39' W 009°05'0 0.0
2017-Sep-18 02:01N 38°39' W 009°05'0 0.0
2017-Sep-18 01:31N 38°39' W 009°05'0 0.0
2017-Sep-18 01:01N 38°39' W 009°05'0 0.0
2017-Sep-18 00:30N 38°39' W 009°05'0 0.0
2017-Sep-18 00:01N 38°39' W 009°05'0 0.0
2017-Sep-17 23:30N 38°39' W 009°05'0 0.0
2017-Sep-17 23:01N 38°39' W 009°05'0 0.0
2017-Sep-17 22:30N 38°39' W 009°05'0 0.0
2017-Sep-17 22:00N 38°39' W 009°05'0 0.0
2017-Sep-17 21:30N 38°39' W 009°05'0 0.0
2017-Sep-17 21:00N 38°39' W 009°05'0 0.0
2017-Sep-17 20:30N 38°39' W 009°05'0 0.0
2017-Sep-17 20:01N 38°39' W 009°05'0 0.0
2017-Sep-17 19:31N 38°39' W 009°05'0 0.0
2017-Sep-17 19:00N 38°39' W 009°05'0 0.0
2017-Sep-17 18:30N 38°39' W 009°05'0 0.0
2017-Sep-17 18:01N 38°39' W 009°05'0 0.0
2017-Sep-17 17:30N 38°39' W 009°05'0 0.0
2017-Sep-17 17:00N 38°39' W 009°05'0 0.0
2017-Sep-17 16:31N 38°39' W 009°05'0 0.0
2017-Sep-17 16:00N 38°39' W 009°05'0 0.0
2017-Sep-17 15:30N 38°39' W 009°05'0 0.0
2017-Sep-17 15:01N 38°39' W 009°05'0 0.0
2017-Sep-17 14:30N 38°39' W 009°05'0 0.0
2017-Sep-17 14:01N 38°39' W 009°05'0 0.0
2017-Sep-17 13:30N 38°39' W 009°05'0 0.0
2017-Sep-17 13:01N 38°39' W 009°05'0 0.0
2017-Sep-17 12:31N 38°39' W 009°05'0 0.0
2017-Sep-17 12:00N 38°39' W 009°05'0 0.0
2017-Sep-17 11:30N 38°39' W 009°05'0 0.0
2017-Sep-17 11:00N 38°39' W 009°05'0 0.0
2017-Sep-17 10:30N 38°39' W 009°05'0 0.0
2017-Sep-17 10:00N 38°39' W 009°05'0 0.0
2017-Sep-17 09:30N 38°39' W 009°05'0 0.0
2017-Sep-17 09:00N 38°39' W 009°05'0 0.0
2017-Sep-17 08:31N 38°39' W 009°05'0 0.0
2017-Sep-17 08:00N 38°39' W 009°05'0 0.0
2017-Sep-17 07:31N 38°39' W 009°05'0 0.0
2017-Sep-17 07:01N 38°39' W 009°05'0 0.0
2017-Sep-17 06:30N 38°39' W 009°05'0 0.0
2017-Sep-17 06:00N 38°39' W 009°05'0 0.0
2017-Sep-17 05:30N 38°39' W 009°05'0 0.0
2017-Sep-17 05:00N 38°39' W 009°05'0 0.0
2017-Sep-17 04:30N 38°39' W 009°05'0 0.0
2017-Sep-17 04:00N 38°39' W 009°05'0 0.0
2017-Sep-17 03:30N 38°39' W 009°05'0 0.0
2017-Sep-17 03:00N 38°39' W 009°05'0 0.0
2017-Sep-17 02:30N 38°39' W 009°05'0 0.0
2017-Sep-17 02:00N 38°39' W 009°05'0 0.0
2017-Sep-17 01:30N 38°39' W 009°05'0 0.0
2017-Sep-17 01:00N 38°39' W 009°05'0 0.0
2017-Sep-17 00:30N 38°39' W 009°05'0 0.0
2017-Sep-17 00:00N 38°39' W 009°05'0 0.0
2017-Sep-16 23:30N 38°39' W 009°05'0 0.0
2017-Sep-16 23:00N 38°39' W 009°05'0 0.0
2017-Sep-16 22:30N 38°39' W 009°05'0 0.0
2017-Sep-16 22:00N 38°39' W 009°05'0 0.0
2017-Sep-16 21:30N 38°39' W 009°05'0 0.0
2017-Sep-16 21:00N 38°39' W 009°05'0 0.0
2017-Sep-16 20:30N 38°39' W 009°05'0 0.0
2017-Sep-16 20:00N 38°39' W 009°05'0 0.0
2017-Sep-16 19:30N 38°39' W 009°05'0 0.0
2017-Sep-16 19:00N 38°39' W 009°05'0 0.0
2017-Sep-16 18:30N 38°39' W 009°05'0 0.0
2017-Sep-16 18:00N 38°39' W 009°05'0 0.0
2017-Sep-16 17:30N 38°39' W 009°05'0 0.0
2017-Sep-16 17:00N 38°39' W 009°05'0 0.0
2017-Sep-16 16:30N 38°39' W 009°05'0 0.0
2017-Sep-16 16:00N 38°39' W 009°05'0 0.0
2017-Sep-16 15:30N 38°39' W 009°05'0 0.0
2017-Sep-16 15:00N 38°39' W 009°05'0 0.0
2017-Sep-16 14:30N 38°39' W 009°05'0 0.0
2017-Sep-16 14:00N 38°39' W 009°05'0 0.0
2017-Sep-16 13:30N 38°39' W 009°05'0 0.0
2017-Sep-16 13:00N 38°39' W 009°05'0 0.0
2017-Sep-16 12:30N 38°39' W 009°05'0 0.0
2017-Sep-16 12:00N 38°39' W 009°05'0 0.0
2017-Sep-16 11:30N 38°39' W 009°05'0 0.0
2017-Sep-16 11:00N 38°39' W 009°05'0 0.0
2017-Sep-16 10:30N 38°39' W 009°05'0 0.0
2017-Sep-16 10:00N 38°39' W 009°05'0 0.0
2017-Sep-16 09:30N 38°39' W 009°05'0 0.0
2017-Sep-16 09:00N 38°39' W 009°05'0 0.0
2017-Sep-16 08:30N 38°39' W 009°05'0 0.0
2017-Sep-16 08:00N 38°39' W 009°05'0 0.0
2017-Sep-16 07:30N 38°39' W 009°05'0 0.0
2017-Sep-16 07:00N 38°39' W 009°05'0 0.0
2017-Sep-16 06:30N 38°39' W 009°05'0 0.0
2017-Sep-16 06:00N 38°39' W 009°05'0 0.0
2017-Sep-16 05:30N 38°39' W 009°05'0 0.0
2017-Sep-16 05:00N 38°39' W 009°05'0 0.0
2017-Sep-16 04:30N 38°39' W 009°05'0 0.0
2017-Sep-16 04:00N 38°39' W 009°05'0 0.0
2017-Sep-16 03:30N 38°39' W 009°05'0 0.0
2017-Sep-16 03:00N 38°39' W 009°05'0 0.0
2017-Sep-16 02:30N 38°39' W 009°05'0 0.0
2017-Sep-16 02:00N 38°39' W 009°05'0 0.0
2017-Sep-16 01:30N 38°39' W 009°05'0 0.0
2017-Sep-16 01:00N 38°39' W 009°05'0 0.0
2017-Sep-16 00:30N 38°39' W 009°05'0 0.0
2017-Sep-16 00:00N 38°39' W 009°05'0 0.0
2017-Sep-15 23:30N 38°39' W 009°05'0 0.0
2017-Sep-15 23:00N 38°39' W 009°05'0 0.0
2017-Sep-15 22:30N 38°39' W 009°05'0 0.0
2017-Sep-15 22:00N 38°39' W 009°05'0 0.0
2017-Sep-15 21:30N 38°39' W 009°05'0 0.0
2017-Sep-15 21:00N 38°39' W 009°05'0 0.0
2017-Sep-15 20:30N 38°39' W 009°05'0 0.1
2017-Sep-15 20:00N 38°39' W 009°05'4 8.1
2017-Sep-15 19:30N 38°42' W 009°08'4 8.3
2017-Sep-15 19:00N 38°39' W 009°05'4 8.3
2017-Sep-15 18:30N 38°42' W 009°08'4 7.9
2017-Sep-15 18:00N 38°39' W 009°05'2 4.6
2017-Sep-15 17:30N 38°41' W 009°07'1 2.1
2017-Sep-15 17:00N 38°42' W 009°08'3 6.8
2017-Sep-15 16:30N 38°39' W 009°05'0 0.0
2017-Sep-15 16:00N 38°39' W 009°05'4 8.3
2017-Sep-15 15:31N 38°42' W 009°08'4 8.3
2017-Sep-15 15:01N 38°39' W 009°05'3 6.9
2017-Sep-15 14:30N 38°42' W 009°08'3 6.1
2017-Sep-15 14:00N 38°39' W 009°05'3 6.6
2017-Sep-15 13:30N 38°42' W 009°08'3 6.1
2017-Sep-15 13:00N 38°39' W 009°06'3 5.5
2017-Sep-15 12:30N 38°42' W 009°08'3 5.2
2017-Sep-15 12:01N 38°39' W 009°06'3 5.1
2017-Sep-15 11:31N 38°41' W 009°08'3 5.1
2017-Sep-15 11:00N 38°39' W 009°06'3 5.3
2017-Sep-15 10:31N 38°42' W 009°08'3 5.9
2017-Sep-15 10:00N 38°39' W 009°06'1 1.3
2017-Sep-15 09:30N 38°39' W 009°05'0 0.2
2017-Sep-15 09:00N 38°39' W 009°05'2 4.5
2017-Sep-15 08:31N 38°40' W 009°07'2 3.5
2017-Sep-15 08:01N 38°39' W 009°05'4 7.5
2017-Sep-15 07:30N 38°42' W 009°08'4 8.3
2017-Sep-15 07:01N 38°39' W 009°05'2 4.9
2017-Sep-15 06:31N 38°40' W 009°07'2 4.7
2017-Sep-15 06:00N 38°39' W 009°05'0 0.0
2017-Sep-15 05:30N 38°39' W 009°05'0 0.0
2017-Sep-15 05:00N 38°39' W 009°05'0 0.0
2017-Sep-15 04:30N 38°39' W 009°05'0 0.0
2017-Sep-15 04:00N 38°39' W 009°05'0 0.0
2017-Sep-15 03:30N 38°39' W 009°05'0 0.0
2017-Sep-15 03:00N 38°39' W 009°05'0 0.0
2017-Sep-15 02:30N 38°39' W 009°05'0 0.0
2017-Sep-15 02:00N 38°39' W 009°05'0 0.0
2017-Sep-15 01:30N 38°39' W 009°05'0 0.0
2017-Sep-15 01:00N 38°39' W 009°05'0 0.0
2017-Sep-15 00:30N 38°39' W 009°05'0 0.0
2017-Sep-15 00:00N 38°39' W 009°05'0 0.0
2017-Sep-14 23:30N 38°39' W 009°05'0 0.0
2017-Sep-14 23:01N 38°39' W 009°05'0 0.0
2017-Sep-14 22:30N 38°39' W 009°05'0 0.0
2017-Sep-14 22:00N 38°39' W 009°05'0 0.0
2017-Sep-14 21:30N 38°39' W 009°05'0 0.0
2017-Sep-14 21:00N 38°39' W 009°05'0 0.3
2017-Sep-14 20:31N 38°39' W 009°05'4 7.9
2017-Sep-14 20:01N 38°42' W 009°08'4 7.8
2017-Sep-14 19:30N 38°39' W 009°05'2 4.3
2017-Sep-14 19:01N 38°40' W 009°07'0 0.6
2017-Sep-14 18:30N 38°40' W 009°07'1 1.6
2017-Sep-14 18:01N 38°40' W 009°07'1 1.1
2017-Sep-14 17:31N 38°40' W 009°06'3 6.5
2017-Sep-14 17:01N 38°42' W 009°08'4 8.3
2017-Sep-14 16:30N 38°39' W 009°05'4 8.4
2017-Sep-14 16:01N 38°42' W 009°08'3 6.6
2017-Sep-14 15:31N 38°40' W 009°06'2 4.3
2017-Sep-14 15:00N 38°41' W 009°08'3 6.0
2017-Sep-14 14:30N 38°39' W 009°05'0 0.0
2017-Sep-14 14:00N 38°39' W 009°05'0 0.0
2017-Sep-14 13:30N 38°39' W 009°05'0 0.0
2017-Sep-14 13:00N 38°39' W 009°05'0 0.0
2017-Sep-14 12:30N 38°39' W 009°05'0 0.0
2017-Sep-14 12:00N 38°39' W 009°05'0 0.0
2017-Sep-14 11:30N 38°39' W 009°05'0 0.0
2017-Sep-14 11:00N 38°39' W 009°05'0 0.0
2017-Sep-14 10:30N 38°39' W 009°05'0 0.0
2017-Sep-14 10:00N 38°39' W 009°05'0 0.0
2017-Sep-14 09:30N 38°39' W 009°05'0 0.0
2017-Sep-14 09:00N 38°39' W 009°05'0 0.2
2017-Sep-14 08:30N 38°39' W 009°05'3 6.9
2017-Sep-14 08:00N 38°42' W 009°08'4 7.1
2017-Sep-14 07:30N 38°39' W 009°05'4 8.4
2017-Sep-14 07:01N 38°42' W 009°08'4 8.3
2017-Sep-14 06:30N 38°39' W 009°05'3 6.6
2017-Sep-14 06:01N 38°41' W 009°08'3 6.5
2017-Sep-14 05:30N 38°39' W 009°05'0 0.0
2017-Sep-13 20:35N 38°39' W 009°05'0 0.0
2017-Sep-13 20:30N 38°39' W 009°05'4 8.3
2017-Sep-13 20:00N 38°42' W 009°08'4 8.3
2017-Sep-13 19:30N 38°39' W 009°05'2 4.0
2017-Sep-13 19:00N 38°40' W 009°07'1 1.6
2017-Sep-13 18:31N 38°41' W 009°07'1 2.1
2017-Sep-13 18:01N 38°40' W 009°07'0 0.6
2017-Sep-13 17:31N 38°40' W 009°06'3 5.9
2017-Sep-13 17:00N 38°42' W 009°08'4 8.4
2017-Sep-13 16:31N 38°39' W 009°05'4 8.4
2017-Sep-13 16:00N 38°42' W 009°08'4 7.9
2017-Sep-13 15:30N 38°39' W 009°05'3 5.2
2017-Sep-13 15:01N 38°41' W 009°08'3 5.7
2017-Sep-13 14:30N 38°39' W 009°05'0 0.0
2017-Sep-13 12:26N 38°39' W 009°05'3 8.0
2017-Sep-13 12:00N 38°42' W 009°08'3 5.6
2017-Sep-13 11:31N 38°39' W 009°06'3 5.7
2017-Sep-13 11:01N 38°42' W 009°08'3 5.6
2017-Sep-13 10:30N 38°39' W 009°06'1 1.8
2017-Sep-13 10:01N 38°39' W 009°05'0 0.0
2017-Sep-13 09:30N 38°39' W 009°05'4 7.8
2017-Sep-13 09:00N 38°42' W 009°08'4 7.7
2017-Sep-13 08:30N 38°39' W 009°05'4 8.4
2017-Sep-13 08:01N 38°42' W 009°08'4 8.0
2017-Sep-13 07:31N 38°39' W 009°05'2 4.8
2017-Sep-13 07:01N 38°41' W 009°08'1 1.2
2017-Sep-13 06:31N 38°40' W 009°07'1 2.4
2017-Sep-13 06:01N 38°40' W 009°06'1 1.8
2017-Sep-13 05:30N 38°39' W 009°05'0 0.0
2017-Sep-12 19:15N 38°39' W 009°05'0 0.0
2017-Sep-12 19:01N 38°39' W 009°05'4 8.1
2017-Sep-12 18:30N 38°42' W 009°08'4 8.3
2017-Sep-12 18:00N 38°39' W 009°05'4 7.9
2017-Sep-12 17:31N 38°42' W 009°08'2 4.7
2017-Sep-12 17:01N 38°40' W 009°07'1 1.8
2017-Sep-12 16:30N 38°40' W 009°06'3 6.2
2017-Sep-12 16:00N 38°42' W 009°08'4 8.3
2017-Sep-12 15:30N 38°39' W 009°05'4 7.5
2017-Sep-12 15:00N 38°42' W 009°08'3 6.5
2017-Sep-12 14:31N 38°39' W 009°05'1 1.3
2017-Sep-12 14:00N 38°39' W 009°05'0 0.0
2017-Sep-12 08:45N 38°39' W 009°05'0 0.5
2017-Sep-12 08:30N 38°39' W 009°05'3 6.6
2017-Sep-12 08:00N 38°41' W 009°08'3 6.8
2017-Sep-12 07:30N 38°39' W 009°05'4 8.4
2017-Sep-12 07:00N 38°42' W 009°08'4 8.3
2017-Sep-12 06:31N 38°39' W 009°05'3 6.6
2017-Sep-12 06:00N 38°41' W 009°08'3 6.6
2017-Sep-12 05:30N 38°39' W 009°05'  
Track history (hours):
 
Tides and Currents Weather Stations Pressure Air Temp Water Temp Dewpoint Dewpoint Depression Visibility Wind Speed Wind Dir Waves Ship Positions

Fernando Namora

Last reported at 2017-Sep-21 23:00 UTC. Time now 2017-Sep-21 23:21 UTC.
Position N 38°39' W 009°05'.

Length 49 m; draft 1.5 m.

Type: Ship. MMSI: 263701380.

Date/timePositionNaut miles runAvg speedWind from/ knotsBaromVisibWave heightAir tempDewpointWater temp
2017-Sep-21 23:00N 38°39' W 009°05'4 8.4
2017-Sep-21 22:30N 38°42' W 009°08'4 8.3
2017-Sep-21 22:00N 38°39' W 009°05'4 7.1
2017-Sep-21 21:31N 38°42' W 009°08'4 7.1
2017-Sep-21 21:00N 38°39' W 009°05'3 6.7
2017-Sep-21 20:30N 38°41' W 009°08'3 6.6
2017-Sep-21 20:00N 38°39' W 009°05'0 0.0
2017-Sep-21 19:31N 38°39' W 009°05'4 8.2
2017-Sep-21 19:01N 38°42' W 009°08'4 8.3
2017-Sep-21 18:30N 38°39' W 009°05'4 8.4
2017-Sep-21 18:00N 38°42' W 009°08'4 8.3
2017-Sep-21 17:30N 38°39' W 009°05'4 7.8
2017-Sep-21 17:00N 38°42' W 009°08'2 4.6
2017-Sep-21 16:31N 38°40' W 009°07'1 1.0
2017-Sep-21 16:01N 38°40' W 009°08'2 4.6
2017-Sep-21 15:30N 38°39' W 009°05'0 0.0
2017-Sep-21 15:01N 38°39' W 009°05'0 0.0
2017-Sep-21 14:31N 38°39' W 009°05'0 0.0
2017-Sep-21 14:01N 38°39' W 009°05'0 0.0
2017-Sep-21 13:30N 38°39' W 009°05'0 0.0
2017-Sep-21 13:00N 38°39' W 009°05'0 0.0
2017-Sep-21 12:30N 38°39' W 009°05'3 6.5
2017-Sep-21 12:01N 38°41' W 009°08'2 5.0
2017-Sep-21 11:31N 38°39' W 009°06'3 5.4
2017-Sep-21 11:00N 38°42' W 009°08'3 6.3
2017-Sep-21 10:31N 38°39' W 009°05'0 0.9
2017-Sep-21 10:00N 38°39' W 009°05'0 0.0
2017-Sep-21 09:30N 38°39' W 009°05'4 8.3
2017-Sep-21 09:01N 38°42' W 009°08'4 8.3
2017-Sep-21 08:30N 38°39' W 009°05'4 8.4
2017-Sep-21 08:00N 38°42' W 009°08'4 7.9
2017-Sep-21 07:30N 38°39' W 009°05'2 4.4
2017-Sep-21 07:01N 38°40' W 009°07'1 1.9
2017-Sep-21 06:30N 38°40' W 009°06'1 1.0
2017-Sep-21 06:00N 38°40' W 009°06'1 2.0
2017-Sep-21 05:30N 38°39' W 009°05'0 0.0
2017-Sep-20 20:45N 38°39' W 009°05'0 0.0
2017-Sep-20 20:31N 38°39' W 009°05'4 8.3
2017-Sep-20 20:01N 38°42' W 009°08'4 8.2
2017-Sep-20 19:30N 38°39' W 009°05'2 3.5
2017-Sep-20 19:00N 38°40' W 009°07'1 1.8
2017-Sep-20 18:30N 38°40' W 009°08'1 1.5
2017-Sep-20 18:01N 38°40' W 009°07'1 1.5
2017-Sep-20 17:30N 38°40' W 009°06'3 6.3
2017-Sep-20 17:00N 38°42' W 009°08'4 8.4
2017-Sep-20 16:30N 38°39' W 009°05'0 0.2
2017-Sep-20 16:00N 38°39' W 009°05'1 1.4
2017-Sep-20 15:31N 38°39' W 009°06'2 4.2
2017-Sep-20 15:00N 38°41' W 009°08'3 2.8
2017-Sep-20 14:00N 38°39' W 009°05'0 0.0
2017-Sep-20 13:30N 38°39' W 009°05'0 0.0
2017-Sep-20 13:00N 38°39' W 009°05'0 0.0
2017-Sep-20 12:30N 38°39' W 009°05'0 0.0
2017-Sep-20 12:00N 38°39' W 009°05'0 0.0
2017-Sep-20 11:30N 38°39' W 009°05'0 0.0
2017-Sep-20 11:00N 38°39' W 009°05'0 0.0
2017-Sep-20 10:30N 38°39' W 009°05'0 0.0
2017-Sep-20 10:00N 38°39' W 009°05'0 0.2
2017-Sep-20 09:30N 38°39' W 009°05'3 7.0
2017-Sep-20 09:00N 38°42' W 009°08'3 5.9
2017-Sep-20 08:31N 38°39' W 009°06'3 5.3
2017-Sep-20 08:00N 38°41' W 009°08'3 5.3
2017-Sep-20 07:30N 38°39' W 009°06'4 7.3
2017-Sep-20 07:00N 38°42' W 009°08'4 8.3
2017-Sep-20 06:31N 38°39' W 009°05'3 6.0
2017-Sep-20 06:01N 38°41' W 009°08'3 6.0
2017-Sep-20 05:30N 38°39' W 009°05'0 0.0
2017-Sep-20 05:01N 38°39' W 009°05'0 0.0
2017-Sep-19 21:03N 38°39' W 009°05'0 0.0
2017-Sep-19 21:00N 38°39' W 009°05'0 0.0
2017-Sep-19 20:30N 38°39' W 009°05'4 8.2
2017-Sep-19 20:00N 38°42' W 009°08'4 8.4
2017-Sep-19 19:31N 38°39' W 009°05'2 3.7
2017-Sep-19 19:00N 38°40' W 009°07'1 2.3
2017-Sep-19 18:30N 38°41' W 009°08'1 2.1
2017-Sep-19 18:00N 38°40' W 009°07'1 1.7
2017-Sep-19 17:31N 38°40' W 009°06'3 6.2
2017-Sep-19 17:00N 38°42' W 009°08'4 8.4
2017-Sep-19 16:30N 38°39' W 009°05'4 8.4
2017-Sep-19 16:00N 38°42' W 009°08'4 7.3
2017-Sep-19 15:31N 38°39' W 009°06'3 5.4
2017-Sep-19 15:00N 38°41' W 009°08'3 6.3
2017-Sep-19 14:30N 38°39' W 009°05'0 0.0
2017-Sep-19 12:04N 38°39' W 009°05'0 0.0
2017-Sep-19 11:59N 38°39' W 009°05'0 0.0
2017-Sep-19 11:31N 38°39' W 009°05'0 0.0
2017-Sep-19 11:00N 38°39' W 009°05'0 0.0
2017-Sep-19 10:31N 38°39' W 009°05'4 7.1
2017-Sep-19 10:01N 38°42' W 009°08'3 6.4
2017-Sep-19 09:30N 38°39' W 009°05'1 1.0
2017-Sep-19 09:01N 38°39' W 009°05'2 4.8
2017-Sep-19 08:31N 38°40' W 009°07'2 3.2
2017-Sep-19 08:01N 38°39' W 009°06'3 6.8
2017-Sep-19 07:30N 38°42' W 009°08'4 8.3
2017-Sep-19 07:00N 38°39' W 009°05'4 7.7
2017-Sep-19 06:31N 38°42' W 009°08'4 7.5
2017-Sep-19 06:01N 38°39' W 009°05'0 0.0
2017-Sep-18 20:03N 38°39' W 009°05'0 0.0
2017-Sep-18 20:00N 38°39' W 009°05'4 8.2
2017-Sep-18 19:30N 38°42' W 009°08'4 8.3
2017-Sep-18 19:00N 38°39' W 009°05'4 8.3
2017-Sep-18 18:31N 38°42' W 009°08'4 7.0
2017-Sep-18 18:00N 38°39' W 009°06'2 3.7
2017-Sep-18 17:30N 38°41' W 009°07'1 1.5
2017-Sep-18 17:01N 38°41' W 009°08'3 6.4
2017-Sep-18 16:30N 38°39' W 009°05'0 0.0
2017-Sep-18 16:00N 38°39' W 009°05'4 8.2
2017-Sep-18 15:30N 38°42' W 009°08'4 8.3
2017-Sep-18 15:00N 38°39' W 009°05'3 6.9
2017-Sep-18 14:30N 38°42' W 009°08'3 5.8
2017-Sep-18 14:01N 38°39' W 009°06'3 5.8
2017-Sep-18 13:30N 38°42' W 009°08'3 6.0
2017-Sep-18 13:00N 38°39' W 009°06'3 6.3
2017-Sep-18 12:30N 38°42' W 009°08'3 6.4
2017-Sep-18 12:00N 38°39' W 009°05'3 6.2
2017-Sep-18 11:30N 38°42' W 009°08'3 6.0
2017-Sep-18 11:01N 38°39' W 009°06'3 5.5
2017-Sep-18 10:31N 38°41' W 009°08'3 6.0
2017-Sep-18 10:00N 38°39' W 009°05'0 0.9
2017-Sep-18 09:30N 38°39' W 009°05'0 0.1
2017-Sep-18 09:01N 38°39' W 009°05'4 8.5
2017-Sep-18 08:31N 38°42' W 009°08'4 8.3
2017-Sep-18 08:00N 38°39' W 009°05'4 7.8
2017-Sep-18 07:30N 38°42' W 009°08'2 4.9
2017-Sep-18 07:00N 38°40' W 009°07'1 1.9
2017-Sep-18 06:31N 38°39' W 009°06'1 1.5
2017-Sep-18 06:00N 38°39' W 009°05'0 0.0
2017-Sep-18 05:31N 38°39' W 009°05'0 0.0
2017-Sep-18 05:01N 38°39' W 009°05'0 0.0
2017-Sep-18 04:30N 38°39' W 009°05'0 0.0
2017-Sep-18 04:00N 38°39' W 009°05'0 0.0
2017-Sep-18 03:31N 38°39' W 009°05'0 0.0
2017-Sep-18 03:01N 38°39' W 009°05'0 0.0
2017-Sep-18 02:30N 38°39' W 009°05'0 0.0
2017-Sep-18 02:01N 38°39' W 009°05'0 0.0
2017-Sep-18 01:31N 38°39' W 009°05'0 0.0
2017-Sep-18 01:01N 38°39' W 009°05'0 0.0
2017-Sep-18 00:30N 38°39' W 009°05'0 0.0
2017-Sep-18 00:01N 38°39' W 009°05'0 0.0
2017-Sep-17 23:30N 38°39' W 009°05'0 0.0
2017-Sep-17 23:01N 38°39' W 009°05'0 0.0
2017-Sep-17 22:30N 38°39' W 009°05'0 0.0
2017-Sep-17 22:00N 38°39' W 009°05'0 0.0
2017-Sep-17 21:30N 38°39' W 009°05'0 0.0
2017-Sep-17 21:00N 38°39' W 009°05'0 0.0
2017-Sep-17 20:30N 38°39' W 009°05'0 0.0
2017-Sep-17 20:01N 38°39' W 009°05'0 0.0
2017-Sep-17 19:31N 38°39' W 009°05'0 0.0
2017-Sep-17 19:00N 38°39' W 009°05'0 0.0
2017-Sep-17 18:30N 38°39' W 009°05'0 0.0
2017-Sep-17 18:01N 38°39' W 009°05'0 0.0
2017-Sep-17 17:30N 38°39' W 009°05'0 0.0
2017-Sep-17 17:00N 38°39' W 009°05'0 0.0
2017-Sep-17 16:31N 38°39' W 009°05'0 0.0
2017-Sep-17 16:00N 38°39' W 009°05'0 0.0
2017-Sep-17 15:30N 38°39' W 009°05'0 0.0
2017-Sep-17 15:01N 38°39' W 009°05'0 0.0
2017-Sep-17 14:30N 38°39' W 009°05'0 0.0
2017-Sep-17 14:01N 38°39' W 009°05'0 0.0
2017-Sep-17 13:30N 38°39' W 009°05'0 0.0
2017-Sep-17 13:01N 38°39' W 009°05'0 0.0
2017-Sep-17 12:31N 38°39' W 009°05'0 0.0
2017-Sep-17 12:00N 38°39' W 009°05'0 0.0
2017-Sep-17 11:30N 38°39' W 009°05'0 0.0
2017-Sep-17 11:00N 38°39' W 009°05'0 0.0
2017-Sep-17 10:30N 38°39' W 009°05'0 0.0
2017-Sep-17 10:00N 38°39' W 009°05'0 0.0
2017-Sep-17 09:30N 38°39' W 009°05'0 0.0
2017-Sep-17 09:00N 38°39' W 009°05'0 0.0
2017-Sep-17 08:31N 38°39' W 009°05'0 0.0
2017-Sep-17 08:00N 38°39' W 009°05'0 0.0
2017-Sep-17 07:31N 38°39' W 009°05'0 0.0
2017-Sep-17 07:01N 38°39' W 009°05'0 0.0
2017-Sep-17 06:30N 38°39' W 009°05'0 0.0
2017-Sep-17 06:00N 38°39' W 009°05'0 0.0
2017-Sep-17 05:30N 38°39' W 009°05'0 0.0
2017-Sep-17 05:00N 38°39' W 009°05'0 0.0
2017-Sep-17 04:30N 38°39' W 009°05'0 0.0
2017-Sep-17 04:00N 38°39' W 009°05'0 0.0
2017-Sep-17 03:30N 38°39' W 009°05'0 0.0
2017-Sep-17 03:00N 38°39' W 009°05'0 0.0
2017-Sep-17 02:30N 38°39' W 009°05'0 0.0
2017-Sep-17 02:00N 38°39' W 009°05'0 0.0
2017-Sep-17 01:30N 38°39' W 009°05'0 0.0
2017-Sep-17 01:00N 38°39' W 009°05'0 0.0
2017-Sep-17 00:30N 38°39' W 009°05'0 0.0
2017-Sep-17 00:00N 38°39' W 009°05'0 0.0
2017-Sep-16 23:30N 38°39' W 009°05'0 0.0
2017-Sep-16 23:00N 38°39' W 009°05'0 0.0
2017-Sep-16 22:30N 38°39' W 009°05'0 0.0
2017-Sep-16 22:00N 38°39' W 009°05'0 0.0
2017-Sep-16 21:30N 38°39' W 009°05'0 0.0
2017-Sep-16 21:00N 38°39' W 009°05'0 0.0
2017-Sep-16 20:30N 38°39' W 009°05'0 0.0
2017-Sep-16 20:00N 38°39' W 009°05'0 0.0
2017-Sep-16 19:30N 38°39' W 009°05'0 0.0
2017-Sep-16 19:00N 38°39' W 009°05'0 0.0
2017-Sep-16 18:30N 38°39' W 009°05'0 0.0
2017-Sep-16 18:00N 38°39' W 009°05'0 0.0
2017-Sep-16 17:30N 38°39' W 009°05'0 0.0
2017-Sep-16 17:00N 38°39' W 009°05'0 0.0
2017-Sep-16 16:30N 38°39' W 009°05'0 0.0
2017-Sep-16 16:00N 38°39' W 009°05'0 0.0
2017-Sep-16 15:30N 38°39' W 009°05'0 0.0
2017-Sep-16 15:00N 38°39' W 009°05'0 0.0
2017-Sep-16 14:30N 38°39' W 009°05'0 0.0
2017-Sep-16 14:00N 38°39' W 009°05'0 0.0
2017-Sep-16 13:30N 38°39' W 009°05'0 0.0
2017-Sep-16 13:00N 38°39' W 009°05'0 0.0
2017-Sep-16 12:30N 38°39' W 009°05'0 0.0
2017-Sep-16 12:00N 38°39' W 009°05'0 0.0
2017-Sep-16 11:30N 38°39' W 009°05'0 0.0
2017-Sep-16 11:00N 38°39' W 009°05'0 0.0
2017-Sep-16 10:30N 38°39' W 009°05'0 0.0
2017-Sep-16 10:00N 38°39' W 009°05'0 0.0
2017-Sep-16 09:30N 38°39' W 009°05'0 0.0
2017-Sep-16 09:00N 38°39' W 009°05'0 0.0
2017-Sep-16 08:30N 38°39' W 009°05'0 0.0
2017-Sep-16 08:00N 38°39' W 009°05'0 0.0
2017-Sep-16 07:30N 38°39' W 009°05'0 0.0
2017-Sep-16 07:00N 38°39' W 009°05'0 0.0
2017-Sep-16 06:30N 38°39' W 009°05'0 0.0
2017-Sep-16 06:00N 38°39' W 009°05'0 0.0
2017-Sep-16 05:30N 38°39' W 009°05'0 0.0
2017-Sep-16 05:00N 38°39' W 009°05'0 0.0
2017-Sep-16 04:30N 38°39' W 009°05'0 0.0
2017-Sep-16 04:00N 38°39' W 009°05'0 0.0
2017-Sep-16 03:30N 38°39' W 009°05'0 0.0
2017-Sep-16 03:00N 38°39' W 009°05'0 0.0
2017-Sep-16 02:30N 38°39' W 009°05'0 0.0
2017-Sep-16 02:00N 38°39' W 009°05'0 0.0
2017-Sep-16 01:30N 38°39' W 009°05'0 0.0
2017-Sep-16 01:00N 38°39' W 009°05'0 0.0
2017-Sep-16 00:30N 38°39' W 009°05'0 0.0
2017-Sep-16 00:00N 38°39' W 009°05'0 0.0
2017-Sep-15 23:30N 38°39' W 009°05'0 0.0
2017-Sep-15 23:00N 38°39' W 009°05'0 0.0
2017-Sep-15 22:30N 38°39' W 009°05'0 0.0
2017-Sep-15 22:00N 38°39' W 009°05'0 0.0
2017-Sep-15 21:30N 38°39' W 009°05'0 0.0
2017-Sep-15 21:00N 38°39' W 009°05'0 0.0
2017-Sep-15 20:30N 38°39' W 009°05'0 0.1
2017-Sep-15 20:00N 38°39' W 009°05'4 8.1
2017-Sep-15 19:30N 38°42' W 009°08'4 8.3
2017-Sep-15 19:00N 38°39' W 009°05'4 8.3
2017-Sep-15 18:30N 38°42' W 009°08'4 7.9
2017-Sep-15 18:00N 38°39' W 009°05'2 4.6
2017-Sep-15 17:30N 38°41' W 009°07'1 2.1
2017-Sep-15 17:00N 38°42' W 009°08'3 6.8
2017-Sep-15 16:30N 38°39' W 009°05'0 0.0
2017-Sep-15 16:00N 38°39' W 009°05'4 8.3
2017-Sep-15 15:31N 38°42' W 009°08'4 8.3
2017-Sep-15 15:01N 38°39' W 009°05'3 6.9
2017-Sep-15 14:30N 38°42' W 009°08'3 6.1
2017-Sep-15 14:00N 38°39' W 009°05'3 6.6
2017-Sep-15 13:30N 38°42' W 009°08'3 6.1
2017-Sep-15 13:00N 38°39' W 009°06'3 5.5
2017-Sep-15 12:30N 38°42' W 009°08'3 5.2
2017-Sep-15 12:01N 38°39' W 009°06'3 5.1
2017-Sep-15 11:31N 38°41' W 009°08'3 5.1
2017-Sep-15 11:00N 38°39' W 009°06'3 5.3
2017-Sep-15 10:31N 38°42' W 009°08'3 5.9
2017-Sep-15 10:00N 38°39' W 009°06'1 1.3
2017-Sep-15 09:30N 38°39' W 009°05'0 0.2
2017-Sep-15 09:00N 38°39' W 009°05'2 4.5
2017-Sep-15 08:31N 38°40' W 009°07'2 3.5
2017-Sep-15 08:01N 38°39' W 009°05'4 7.5
2017-Sep-15 07:30N 38°42' W 009°08'4 8.3
2017-Sep-15 07:01N 38°39' W 009°05'2 4.9
2017-Sep-15 06:31N 38°40' W 009°07'2 4.7
2017-Sep-15 06:00N 38°39' W 009°05'0 0.0
2017-Sep-15 05:30N 38°39' W 009°05'0 0.0
2017-Sep-15 05:00N 38°39' W 009°05'0 0.0
2017-Sep-15 04:30N 38°39' W 009°05'0 0.0
2017-Sep-15 04:00N 38°39' W 009°05'0 0.0
2017-Sep-15 03:30N 38°39' W 009°05'0 0.0
2017-Sep-15 03:00N 38°39' W 009°05'0 0.0
2017-Sep-15 02:30N 38°39' W 009°05'0 0.0
2017-Sep-15 02:00N 38°39' W 009°05'0 0.0
2017-Sep-15 01:30N 38°39' W 009°05'0 0.0
2017-Sep-15 01:00N 38°39' W 009°05'0 0.0
2017-Sep-15 00:30N 38°39' W 009°05'0 0.0
2017-Sep-15 00:00N 38°39' W 009°05'0 0.0
2017-Sep-14 23:30N 38°39' W 009°05'0 0.0
2017-Sep-14 23:01N 38°39' W 009°05'0 0.0
2017-Sep-14 22:30N 38°39' W 009°05'0 0.0
2017-Sep-14 22:00N 38°39' W 009°05'0 0.0
2017-Sep-14 21:30N 38°39' W 009°05'0 0.0
2017-Sep-14 21:00N 38°39' W 009°05'0 0.3
2017-Sep-14 20:31N 38°39' W 009°05'4 7.9
2017-Sep-14 20:01N 38°42' W 009°08'4 7.8
2017-Sep-14 19:30N 38°39' W 009°05'2 4.3
2017-Sep-14 19:01N 38°40' W 009°07'0 0.6
2017-Sep-14 18:30N 38°40' W 009°07'1 1.6
2017-Sep-14 18:01N 38°40' W 009°07'1 1.1
2017-Sep-14 17:31N 38°40' W 009°06'3 6.5
2017-Sep-14 17:01N 38°42' W 009°08'4 8.3
2017-Sep-14 16:30N 38°39' W 009°05'4 8.4
2017-Sep-14 16:01N 38°42' W 009°08'3 6.6
2017-Sep-14 15:31N 38°40' W 009°06'2 4.3
2017-Sep-14 15:00N 38°41' W 009°08'3 6.0
2017-Sep-14 14:30N 38°39' W 009°05'0 0.0
2017-Sep-14 14:00N 38°39' W 009°05'0 0.0
2017-Sep-14 13:30N 38°39' W 009°05'0 0.0
2017-Sep-14 13:00N 38°39' W 009°05'0 0.0
2017-Sep-14 12:30N 38°39' W 009°05'0 0.0
2017-Sep-14 12:00N 38°39' W 009°05'0 0.0
2017-Sep-14 11:30N 38°39' W 009°05'0 0.0
2017-Sep-14 11:00N 38°39' W 009°05'0 0.0
2017-Sep-14 10:30N 38°39' W 009°05'0 0.0
2017-Sep-14 10:00N 38°39' W 009°05'0 0.0
2017-Sep-14 09:30N 38°39' W 009°05'0 0.0
2017-Sep-14 09:00N 38°39' W 009°05'0 0.2
2017-Sep-14 08:30N 38°39' W 009°05'3 6.9
2017-Sep-14 08:00N 38°42' W 009°08'4 7.1
2017-Sep-14 07:30N 38°39' W 009°05'4 8.4
2017-Sep-14 07:01N 38°42' W 009°08'4 8.3
2017-Sep-14 06:30N 38°39' W 009°05'3 6.6
2017-Sep-14 06:01N 38°41' W 009°08'3 6.5
2017-Sep-14 05:30N 38°39' W 009°05'0 0.0
2017-Sep-13 20:35N 38°39' W 009°05'0 0.0
2017-Sep-13 20:30N 38°39' W 009°05'4 8.3
2017-Sep-13 20:00N 38°42' W 009°08'4 8.3
2017-Sep-13 19:30N 38°39' W 009°05'2 4.0
2017-Sep-13 19:00N 38°40' W 009°07'1 1.6
2017-Sep-13 18:31N 38°41' W 009°07'1 2.1
2017-Sep-13 18:01N 38°40' W 009°07'0 0.6
2017-Sep-13 17:31N 38°40' W 009°06'3 5.9
2017-Sep-13 17:00N 38°42' W 009°08'4 8.4
2017-Sep-13 16:31N 38°39' W 009°05'4 8.4
2017-Sep-13 16:00N 38°42' W 009°08'4 7.9
2017-Sep-13 15:30N 38°39' W 009°05'3 5.2
2017-Sep-13 15:01N 38°41' W 009°08'3 5.7
2017-Sep-13 14:30N 38°39' W 009°05'0 0.0
2017-Sep-13 12:26N 38°39' W 009°05'3 8.0
2017-Sep-13 12:00N 38°42' W 009°08'3 5.6
2017-Sep-13 11:31N 38°39' W 009°06'3 5.7
2017-Sep-13 11:01N 38°42' W 009°08'3 5.6
2017-Sep-13 10:30N 38°39' W 009°06'1 1.8
2017-Sep-13 10:01N 38°39' W 009°05'0 0.0
2017-Sep-13 09:30N 38°39' W 009°05'4 7.8
2017-Sep-13 09:00N 38°42' W 009°08'4 7.7
2017-Sep-13 08:30N 38°39' W 009°05'4 8.4
2017-Sep-13 08:01N 38°42' W 009°08'4 8.0
2017-Sep-13 07:31N 38°39' W 009°05'2 4.8
2017-Sep-13 07:01N 38°41' W 009°08'1 1.2
2017-Sep-13 06:31N 38°40' W 009°07'1 2.4
2017-Sep-13 06:01N 38°40' W 009°06'1 1.8
2017-Sep-13 05:30N 38°39' W 009°05'0 0.0
2017-Sep-12 19:15N 38°39' W 009°05'0 0.0
2017-Sep-12 19:01N 38°39' W 009°05'4 8.1
2017-Sep-12 18:30N 38°42' W 009°08'4 8.3
2017-Sep-12 18:00N 38°39' W 009°05'4 7.9
2017-Sep-12 17:31N 38°42' W 009°08'2 4.7
2017-Sep-12 17:01N 38°40' W 009°07'1 1.8
2017-Sep-12 16:30N 38°40' W 009°06'3 6.2
2017-Sep-12 16:00N 38°42' W 009°08'4 8.3
2017-Sep-12 15:30N 38°39' W 009°05'4 7.5
2017-Sep-12 15:00N 38°42' W 009°08'3 6.5
2017-Sep-12 14:31N 38°39' W 009°05'1 1.3
2017-Sep-12 14:00N 38°39' W 009°05'0 0.0
2017-Sep-12 08:45N 38°39' W 009°05'0 0.5
2017-Sep-12 08:30N 38°39' W 009°05'3 6.6
2017-Sep-12 08:00N 38°41' W 009°08'3 6.8
2017-Sep-12 07:30N 38°39' W 009°05'4 8.4
2017-Sep-12 07:00N 38°42' W 009°08'4 8.3
2017-Sep-12 06:31N 38°39' W 009°05'3 6.6
2017-Sep-12 06:00N 38°41' W 009°08'3 6.6
2017-Sep-12 05:30N 38°39' W 009°05'  

Dump ship's entire track history